sensor_id;sensor_type;location;lat;lon;timestamp;pressure;altitude;pressure_sealevel;temperature;humidity
42289;BME280;30230;47.520;19.016;2023-08-07T00:00:26;98243.59;;;15.29;89.56
42289;BME280;30230;47.520;19.016;2023-08-07T00:02:27;98236.16;;;15.19;90.06
42289;BME280;30230;47.520;19.016;2023-08-07T00:04:27;98234.28;;;15.20;91.13
42289;BME280;30230;47.520;19.016;2023-08-07T00:06:28;98234.34;;;15.25;90.01
42289;BME280;30230;47.520;19.016;2023-08-07T00:08:28;98229.41;;;15.22;90.87
42289;BME280;30230;47.520;19.016;2023-08-07T00:10:30;98222.00;;;15.17;91.21
42289;BME280;30230;47.520;19.016;2023-08-07T00:12:31;98229.22;;;15.33;90.13
42289;BME280;30230;47.520;19.016;2023-08-07T00:14:31;98225.00;;;15.16;91.26
42289;BME280;30230;47.520;19.016;2023-08-07T00:16:32;98227.44;;;15.17;91.33
42289;BME280;30230;47.520;19.016;2023-08-07T00:18:32;98221.00;;;15.28;91.50
42289;BME280;30230;47.520;19.016;2023-08-07T00:20:32;98223.66;;;15.18;91.26
42289;BME280;30230;47.520;19.016;2023-08-07T00:22:33;98223.66;;;15.18;91.30
42289;BME280;30230;47.520;19.016;2023-08-07T00:24:33;98212.03;;;14.96;91.54
42289;BME280;30230;47.520;19.016;2023-08-07T00:26:34;98220.41;;;15.21;92.52
42289;BME280;30230;47.520;19.016;2023-08-07T00:28:34;98227.75;;;15.21;91.37
42289;BME280;30230;47.520;19.016;2023-08-07T00:30:35;98232.91;;;15.17;91.81
42289;BME280;30230;47.520;19.016;2023-08-07T00:32:35;98223.06;;;15.11;91.81
42289;BME280;30230;47.520;19.016;2023-08-07T00:34:35;98227.38;;;15.07;92.37
42289;BME280;30230;47.520;19.016;2023-08-07T00:36:36;98229.31;;;15.11;91.48
42289;BME280;30230;47.520;19.016;2023-08-07T00:38:36;98233.34;;;15.09;92.12
42289;BME280;30230;47.520;19.016;2023-08-07T00:40:40;98226.31;;;15.13;90.90
42289;BME280;30230;47.520;19.016;2023-08-07T00:42:40;98228.03;;;15.24;91.99
42289;BME280;30230;47.520;19.016;2023-08-07T00:44:41;98235.34;;;15.19;91.41
42289;BME280;30230;47.520;19.016;2023-08-07T00:46:42;98226.59;;;15.11;91.93
42289;BME280;30230;47.520;19.016;2023-08-07T00:48:43;98225.50;;;15.13;91.48
42289;BME280;30230;47.520;19.016;2023-08-07T00:50:44;98214.06;;;15.10;91.40
42289;BME280;30230;47.520;19.016;2023-08-07T00:52:46;98227.91;;;15.09;91.87
42289;BME280;30230;47.520;19.016;2023-08-07T00:54:46;98219.72;;;15.04;91.67
42289;BME280;30230;47.520;19.016;2023-08-07T00:56:47;98235.00;;;15.10;91.66
42289;BME280;30230;47.520;19.016;2023-08-07T00:58:48;98225.19;;;15.09;92.06
42289;BME280;30230;47.520;19.016;2023-08-07T01:00:50;98215.34;;;15.03;91.52
42289;BME280;30230;47.520;19.016;2023-08-07T01:02:50;98225.09;;;14.99;91.44
42289;BME280;30230;47.520;19.016;2023-08-07T01:04:52;98232.28;;;15.10;91.96
42289;BME280;30230;47.520;19.016;2023-08-07T01:06:52;98226.22;;;15.03;91.21
42289;BME280;30230;47.520;19.016;2023-08-07T01:08:53;98224.03;;;15.00;91.69
42289;BME280;30230;47.520;19.016;2023-08-07T01:13:40;98227.25;;;14.97;91.62
42289;BME280;30230;47.520;19.016;2023-08-07T01:15:42;98231.34;;;14.94;91.51
42289;BME280;30230;47.520;19.016;2023-08-07T01:17:44;98232.19;;;15.00;92.62
42289;BME280;30230;47.520;19.016;2023-08-07T01:19:45;98216.06;;;14.93;91.71
42289;BME280;30230;47.520;19.016;2023-08-07T01:21:48;98230.47;;;14.89;92.14
42289;BME280;30230;47.520;19.016;2023-08-07T01:23:49;98230.69;;;14.87;92.22
42289;BME280;30230;47.520;19.016;2023-08-07T01:25:49;98248.59;;;14.83;92.50
42289;BME280;30230;47.520;19.016;2023-08-07T01:27:53;98231.78;;;14.86;92.07
42289;BME280;30230;47.520;19.016;2023-08-07T01:30:29;98246.03;;;14.98;90.09
42289;BME280;30230;47.520;19.016;2023-08-07T01:34:41;98243.25;;;14.93;89.98
42289;BME280;30230;47.520;19.016;2023-08-07T01:36:42;98237.59;;;14.95;89.03
42289;BME280;30230;47.520;19.016;2023-08-07T01:38:46;98249.28;;;14.95;90.52
42289;BME280;30230;47.520;19.016;2023-08-07T01:40:48;98246.09;;;15.03;88.75
42289;BME280;30230;47.520;19.016;2023-08-07T01:42:50;98241.47;;;15.04;87.70
42289;BME280;30230;47.520;19.016;2023-08-07T01:44:51;98238.13;;;14.97;87.97
42289;BME280;30230;47.520;19.016;2023-08-07T01:46:51;98243.69;;;15.07;88.03
42289;BME280;30230;47.520;19.016;2023-08-07T01:48:51;98243.19;;;15.10;88.27
42289;BME280;30230;47.520;19.016;2023-08-07T01:50:53;98252.16;;;15.10;88.03
42289;BME280;30230;47.520;19.016;2023-08-07T01:52:53;98248.34;;;15.11;87.20
42289;BME280;30230;47.520;19.016;2023-08-07T01:54:54;98257.28;;;15.07;87.94
42289;BME280;30230;47.520;19.016;2023-08-07T01:56:54;98243.53;;;14.92;88.58
42289;BME280;30230;47.520;19.016;2023-08-07T01:58:55;98258.81;;;14.98;88.05
42289;BME280;30230;47.520;19.016;2023-08-07T02:00:55;98259.34;;;14.95;88.76
42289;BME280;30230;47.520;19.016;2023-08-07T02:02:55;98261.25;;;14.94;87.97
42289;BME280;30230;47.520;19.016;2023-08-07T02:04:56;98250.66;;;14.98;88.24
42289;BME280;30230;47.520;19.016;2023-08-07T02:06:56;98247.94;;;14.98;88.76
42289;BME280;30230;47.520;19.016;2023-08-07T02:08:57;98267.69;;;14.88;88.88
42289;BME280;30230;47.520;19.016;2023-08-07T02:10:58;98264.69;;;14.84;88.87
42289;BME280;30230;47.520;19.016;2023-08-07T02:13:01;98262.25;;;14.88;88.67
42289;BME280;30230;47.520;19.016;2023-08-07T02:15:02;98255.50;;;14.91;87.68
42289;BME280;30230;47.520;19.016;2023-08-07T02:17:03;98253.28;;;14.88;88.43
42289;BME280;30230;47.520;19.016;2023-08-07T02:19:03;98251.91;;;14.85;88.29
42289;BME280;30230;47.520;19.016;2023-08-07T02:21:04;98250.56;;;14.88;87.96
42289;BME280;30230;47.520;19.016;2023-08-07T02:23:04;98255.28;;;14.97;87.10
42289;BME280;30230;47.520;19.016;2023-08-07T02:25:05;98248.88;;;14.81;88.00
42289;BME280;30230;47.520;19.016;2023-08-07T02:27:05;98249.88;;;14.75;89.21
42289;BME280;30230;47.520;19.016;2023-08-07T02:29:06;98260.38;;;14.89;87.76
42289;BME280;30230;47.520;19.016;2023-08-07T02:31:09;98254.63;;;14.85;87.42
42289;BME280;30230;47.520;19.016;2023-08-07T02:33:09;98251.84;;;14.80;87.93
42289;BME280;30230;47.520;19.016;2023-08-07T02:35:11;98251.06;;;14.84;86.89
42289;BME280;30230;47.520;19.016;2023-08-07T02:37:11;98252.28;;;14.99;86.75
42289;BME280;30230;47.520;19.016;2023-08-07T02:39:13;98255.97;;;14.88;87.27
42289;BME280;30230;47.520;19.016;2023-08-07T02:41:14;98258.97;;;14.86;87.76
42289;BME280;30230;47.520;19.016;2023-08-07T02:43:14;98247.44;;;14.74;86.75
42289;BME280;30230;47.520;19.016;2023-08-07T02:45:15;98248.81;;;14.76;87.33
42289;BME280;30230;47.520;19.016;2023-08-07T02:47:15;98248.91;;;14.87;86.34
42289;BME280;30230;47.520;19.016;2023-08-07T02:49:15;98245.53;;;14.74;87.21
42289;BME280;30230;47.520;19.016;2023-08-07T02:51:16;98239.50;;;14.72;86.60
42289;BME280;30230;47.520;19.016;2023-08-07T02:53:16;98239.56;;;14.77;86.60
42289;BME280;30230;47.520;19.016;2023-08-07T02:55:17;98239.22;;;14.69;86.89
42289;BME280;30230;47.520;19.016;2023-08-07T02:57:17;98247.72;;;14.77;87.11
42289;BME280;30230;47.520;19.016;2023-08-07T02:59:18;98245.53;;;14.74;86.43
42289;BME280;30230;47.520;19.016;2023-08-07T03:01:19;98258.03;;;14.75;86.26
42289;BME280;30230;47.520;19.016;2023-08-07T03:03:20;98252.41;;;14.82;85.83
42289;BME280;30230;47.520;19.016;2023-08-07T03:05:20;98262.50;;;14.87;85.23
42289;BME280;30230;47.520;19.016;2023-08-07T03:07:21;98276.00;;;14.76;85.85
42289;BME280;30230;47.520;19.016;2023-08-07T03:09:21;98268.66;;;14.77;86.32
42289;BME280;30230;47.520;19.016;2023-08-07T03:11:22;98269.19;;;14.74;86.33
42289;BME280;30230;47.520;19.016;2023-08-07T03:13:23;98277.84;;;14.71;85.92
42289;BME280;30230;47.520;19.016;2023-08-07T03:15:23;98269.41;;;14.72;85.62
42289;BME280;30230;47.520;19.016;2023-08-07T03:17:24;98268.59;;;14.72;86.29
42289;BME280;30230;47.520;19.016;2023-08-07T03:19:24;98270.13;;;14.63;85.94
42289;BME280;30230;47.520;19.016;2023-08-07T03:21:25;98281.31;;;14.66;86.34
42289;BME280;30230;47.520;19.016;2023-08-07T03:23:26;98270.84;;;14.53;86.34
42289;BME280;30230;47.520;19.016;2023-08-07T03:25:27;98289.66;;;14.59;86.97
42289;BME280;30230;47.520;19.016;2023-08-07T03:27:27;98280.03;;;14.52;87.43
42289;BME280;30230;47.520;19.016;2023-08-07T03:29:28;98298.31;;;14.56;87.22
42289;BME280;30230;47.520;19.016;2023-08-07T03:31:28;98293.19;;;14.60;87.62
42289;BME280;30230;47.520;19.016;2023-08-07T03:33:29;98278.53;;;14.61;86.58
42289;BME280;30230;47.520;19.016;2023-08-07T03:35:30;98291.56;;;14.59;86.17
42289;BME280;30230;47.520;19.016;2023-08-07T03:37:33;98273.13;;;14.44;87.02
42289;BME280;30230;47.520;19.016;2023-08-07T03:39:34;98285.19;;;14.48;87.39
42289;BME280;30230;47.520;19.016;2023-08-07T03:41:34;98288.09;;;14.47;87.60
42289;BME280;30230;47.520;19.016;2023-08-07T03:43:35;98294.88;;;14.44;87.90
42289;BME280;30230;47.520;19.016;2023-08-07T03:45:35;98288.22;;;14.35;87.90
42289;BME280;30230;47.520;19.016;2023-08-07T03:47:35;98288.97;;;14.30;88.01
42289;BME280;30230;47.520;19.016;2023-08-07T03:49:36;98298.78;;;14.31;88.00
42289;BME280;30230;47.520;19.016;2023-08-07T03:51:36;98292.63;;;14.19;88.41
42289;BME280;30230;47.520;19.016;2023-08-07T03:53:37;98302.75;;;14.24;88.84
42289;BME280;30230;47.520;19.016;2023-08-07T03:55:37;98299.34;;;14.33;88.94
42289;BME280;30230;47.520;19.016;2023-08-07T03:57:38;98297.66;;;14.27;88.54
42289;BME280;30230;47.520;19.016;2023-08-07T03:59:38;98309.97;;;14.35;88.18
42289;BME280;30230;47.520;19.016;2023-08-07T04:01:38;98303.97;;;14.33;88.69
42289;BME280;30230;47.520;19.016;2023-08-07T04:03:39;98299.78;;;14.25;88.95
42289;BME280;30230;47.520;19.016;2023-08-07T04:05:39;98309.34;;;14.28;89.29
42289;BME280;30230;47.520;19.016;2023-08-07T04:07:40;98301.34;;;14.21;89.57
42289;BME280;30230;47.520;19.016;2023-08-07T04:09:40;98303.91;;;14.28;88.45
42289;BME280;30230;47.520;19.016;2023-08-07T04:11:40;98313.75;;;14.34;88.21
42289;BME280;30230;47.520;19.016;2023-08-07T04:13:41;98301.13;;;14.23;88.65
42289;BME280;30230;47.520;19.016;2023-08-07T04:15:41;98314.78;;;14.28;88.30
42289;BME280;30230;47.520;19.016;2023-08-07T04:17:42;98294.13;;;14.27;88.94
42289;BME280;30230;47.520;19.016;2023-08-07T04:19:42;98310.72;;;14.30;88.98
42289;BME280;30230;47.520;19.016;2023-08-07T04:21:42;98311.66;;;14.41;88.43
42289;BME280;30230;47.520;19.016;2023-08-07T04:23:43;98304.47;;;14.30;87.52
42289;BME280;30230;47.520;19.016;2023-08-07T04:25:45;98298.03;;;14.36;87.41
42289;BME280;30230;47.520;19.016;2023-08-07T04:27:46;98298.69;;;14.43;85.64
42289;BME280;30230;47.520;19.016;2023-08-07T04:29:46;98300.66;;;14.48;86.45
42289;BME280;30230;47.520;19.016;2023-08-07T04:31:47;98304.66;;;14.45;86.20
42289;BME280;30230;47.520;19.016;2023-08-07T04:33:47;98299.44;;;14.61;85.47
42289;BME280;30230;47.520;19.016;2023-08-07T04:35:48;98294.84;;;14.61;84.65
42289;BME280;30230;47.520;19.016;2023-08-07T04:37:48;98293.19;;;14.60;84.73
42289;BME280;30230;47.520;19.016;2023-08-07T04:39:49;98304.56;;;14.57;85.00
42289;BME280;30230;47.520;19.016;2023-08-07T04:41:49;98302.44;;;14.59;85.36
42289;BME280;30230;47.520;19.016;2023-08-07T04:43:50;98303.88;;;14.67;85.08
42289;BME280;30230;47.520;19.016;2023-08-07T04:45:50;98292.19;;;14.66;84.88
42289;BME280;30230;47.520;19.016;2023-08-07T04:47:51;98291.41;;;14.71;83.46
42289;BME280;30230;47.520;19.016;2023-08-07T04:49:51;98294.03;;;14.61;83.74
42289;BME280;30230;47.520;19.016;2023-08-07T04:51:52;98297.75;;;14.76;83.11
42289;BME280;30230;47.520;19.016;2023-08-07T04:53:53;98287.56;;;14.67;84.35
42289;BME280;30230;47.520;19.016;2023-08-07T04:55:53;98300.72;;;14.75;83.79
42289;BME280;30230;47.520;19.016;2023-08-07T04:57:54;98276.91;;;14.60;83.69
42289;BME280;30230;47.520;19.016;2023-08-07T04:59:56;98300.97;;;14.73;82.78
42289;BME280;30230;47.520;19.016;2023-08-07T05:01:56;98294.81;;;14.83;82.29
42289;BME280;30230;47.520;19.016;2023-08-07T05:03:57;98277.00;;;14.70;83.11
42289;BME280;30230;47.520;19.016;2023-08-07T05:06:01;98295.66;;;14.83;82.26
42289;BME280;30230;47.520;19.016;2023-08-07T05:08:01;98303.56;;;14.85;82.74
42289;BME280;30230;47.520;19.016;2023-08-07T05:10:02;98300.03;;;14.84;82.39
42289;BME280;30230;47.520;19.016;2023-08-07T05:12:03;98301.66;;;14.85;83.54
42289;BME280;30230;47.520;19.016;2023-08-07T05:14:04;98300.63;;;14.92;82.78
42289;BME280;30230;47.520;19.016;2023-08-07T05:16:04;98299.09;;;15.01;82.27
42289;BME280;30230;47.520;19.016;2023-08-07T05:18:04;98299.09;;;15.01;83.16
42289;BME280;30230;47.520;19.016;2023-08-07T05:20:06;98299.59;;;14.98;82.17
42289;BME280;30230;47.520;19.016;2023-08-07T05:22:06;98290.88;;;14.96;80.59
42289;BME280;30230;47.520;19.016;2023-08-07T05:24:07;98303.19;;;15.03;80.66
42289;BME280;30230;47.520;19.016;2023-08-07T05:26:07;98300.94;;;14.95;82.05
42289;BME280;30230;47.520;19.016;2023-08-07T05:28:08;98307.00;;;15.02;82.41
42289;BME280;30230;47.520;19.016;2023-08-07T05:30:08;98315.91;;;14.98;82.78
42289;BME280;30230;47.520;19.016;2023-08-07T05:32:13;98316.94;;;15.19;80.91
42289;BME280;30230;47.520;19.016;2023-08-07T05:34:14;98317.16;;;15.12;80.91
42289;BME280;30230;47.520;19.016;2023-08-07T05:36:15;98310.47;;;15.20;79.40
42289;BME280;30230;47.520;19.016;2023-08-07T05:38:15;98328.47;;;15.26;78.91
42289;BME280;30230;47.520;19.016;2023-08-07T05:40:15;98325.22;;;15.29;79.15
42289;BME280;30230;47.520;19.016;2023-08-07T05:42:16;98341.34;;;15.35;79.46
42289;BME280;30230;47.520;19.016;2023-08-07T05:44:16;98343.59;;;15.44;78.71
42289;BME280;30230;47.520;19.016;2023-08-07T05:46:17;98348.59;;;15.52;78.66
42289;BME280;30230;47.520;19.016;2023-08-07T05:48:17;98343.41;;;15.55;78.84
42289;BME280;30230;47.520;19.016;2023-08-07T05:50:17;98344.91;;;15.63;78.41
42289;BME280;30230;47.520;19.016;2023-08-07T05:52:18;98340.59;;;15.67;77.73
42289;BME280;30230;47.520;19.016;2023-08-07T05:54:18;98355.69;;;15.85;76.91
42289;BME280;30230;47.520;19.016;2023-08-07T05:56:19;98372.47;;;16.04;77.17
42289;BME280;30230;47.520;19.016;2023-08-07T05:58:20;98373.28;;;16.04;77.05
42289;BME280;30230;47.520;19.016;2023-08-07T06:00:21;98376.66;;;16.22;75.28
42289;BME280;30230;47.520;19.016;2023-08-07T06:02:21;98373.13;;;16.21;74.67
42289;BME280;30230;47.520;19.016;2023-08-07T06:04:21;98379.97;;;16.24;73.79
42289;BME280;30230;47.520;19.016;2023-08-07T06:06:22;98392.16;;;16.16;75.58
42289;BME280;30230;47.520;19.016;2023-08-07T06:08:23;98394.63;;;16.18;75.00
42289;BME280;30230;47.520;19.016;2023-08-07T06:10:24;98381.22;;;16.11;74.17
42289;BME280;30230;47.520;19.016;2023-08-07T06:12:24;98394.25;;;16.04;74.53
42289;BME280;30230;47.520;19.016;2023-08-07T06:14:24;98386.03;;;15.99;75.32
42289;BME280;30230;47.520;19.016;2023-08-07T06:16:25;98395.38;;;16.08;73.58
42289;BME280;30230;47.520;19.016;2023-08-07T06:18:26;98410.34;;;16.05;75.30
42289;BME280;30230;47.520;19.016;2023-08-07T06:20:26;98406.75;;;16.00;75.08
42289;BME280;30230;47.520;19.016;2023-08-07T06:22:27;98415.22;;;16.03;75.45
42289;BME280;30230;47.520;19.016;2023-08-07T06:24:28;98411.47;;;16.09;74.81
42289;BME280;30230;47.520;19.016;2023-08-07T06:26:28;98414.16;;;16.04;73.72
42289;BME280;30230;47.520;19.016;2023-08-07T06:28:29;98414.47;;;16.08;74.27
42289;BME280;30230;47.520;19.016;2023-08-07T06:30:31;98414.41;;;16.03;74.54
42289;BME280;30230;47.520;19.016;2023-08-07T06:32:31;98423.72;;;16.12;73.60
42289;BME280;30230;47.520;19.016;2023-08-07T06:34:32;98419.03;;;16.02;74.86
42289;BME280;30230;47.520;19.016;2023-08-07T06:36:32;98424.44;;;15.97;74.33
42289;BME280;30230;47.520;19.016;2023-08-07T06:38:33;98426.31;;;15.97;74.86
42289;BME280;30230;47.520;19.016;2023-08-07T06:40:37;98446.19;;;15.92;75.35
42289;BME280;30230;47.520;19.016;2023-08-07T06:42:37;98428.50;;;15.95;74.55
42289;BME280;30230;47.520;19.016;2023-08-07T06:44:38;98433.44;;;15.98;76.30
42289;BME280;30230;47.520;19.016;2023-08-07T06:46:38;98441.84;;;15.96;76.15
42289;BME280;30230;47.520;19.016;2023-08-07T06:48:39;98437.75;;;15.94;74.13
42289;BME280;30230;47.520;19.016;2023-08-07T06:50:39;98438.66;;;16.04;74.35
42289;BME280;30230;47.520;19.016;2023-08-07T06:52:39;98437.84;;;16.04;72.32
42289;BME280;30230;47.520;19.016;2023-08-07T06:54:40;98447.09;;;16.03;72.95
42289;BME280;30230;47.520;19.016;2023-08-07T06:56:40;98451.19;;;16.05;73.90
42289;BME280;30230;47.520;19.016;2023-08-07T06:58:42;98440.59;;;16.09;73.42
42289;BME280;30230;47.520;19.016;2023-08-07T07:00:42;98444.16;;;16.09;74.26
42289;BME280;30230;47.520;19.016;2023-08-07T07:02:43;98437.56;;;16.05;73.93
42289;BME280;30230;47.520;19.016;2023-08-07T07:04:43;98441.13;;;16.06;74.05
42289;BME280;30230;47.520;19.016;2023-08-07T07:06:43;98442.03;;;16.17;73.64
42289;BME280;30230;47.520;19.016;2023-08-07T07:08:44;98445.91;;;16.26;72.72
42289;BME280;30230;47.520;19.016;2023-08-07T07:10:44;98448.13;;;16.29;72.30
42289;BME280;30230;47.520;19.016;2023-08-07T07:12:45;98448.91;;;16.24;72.06
42289;BME280;30230;47.520;19.016;2023-08-07T07:14:45;98441.59;;;16.30;72.87
42289;BME280;30230;47.520;19.016;2023-08-07T07:16:45;98435.28;;;16.24;72.50
42289;BME280;30230;47.520;19.016;2023-08-07T07:18:46;98435.84;;;16.26;71.24
42289;BME280;30230;47.520;19.016;2023-08-07T07:20:47;98449.28;;;16.38;72.51
42289;BME280;30230;47.520;19.016;2023-08-07T07:22:47;98452.09;;;16.53;70.82
42289;BME280;30230;47.520;19.016;2023-08-07T07:24:48;98444.78;;;16.59;71.73
42289;BME280;30230;47.520;19.016;2023-08-07T07:26:48;98445.19;;;16.73;70.60
42289;BME280;30230;47.520;19.016;2023-08-07T07:28:48;98449.31;;;16.75;71.92
42289;BME280;30230;47.520;19.016;2023-08-07T07:30:51;98443.59;;;16.82;70.43
42289;BME280;30230;47.520;19.016;2023-08-07T07:32:51;98439.47;;;16.79;70.94
42289;BME280;30230;47.520;19.016;2023-08-07T07:34:52;98454.28;;;16.88;71.27
42289;BME280;30230;47.520;19.016;2023-08-07T07:36:52;98444.22;;;16.94;69.42
42289;BME280;30230;47.520;19.016;2023-08-07T07:38:54;98451.06;;;17.02;68.57
42289;BME280;30230;47.520;19.016;2023-08-07T07:40:54;98451.44;;;17.26;70.12
42289;BME280;30230;47.520;19.016;2023-08-07T07:42:56;98462.75;;;17.55;67.67
42289;BME280;30230;47.520;19.016;2023-08-07T07:44:57;98460.59;;;17.72;66.80
42289;BME280;30230;47.520;19.016;2023-08-07T07:46:57;98463.97;;;17.89;67.07
42289;BME280;30230;47.520;19.016;2023-08-07T07:48:58;98462.31;;;18.14;63.43
42289;BME280;30230;47.520;19.016;2023-08-07T07:51:00;98465.88;;;18.30;66.49
42289;BME280;30230;47.520;19.016;2023-08-07T07:53:01;98462.34;;;18.34;64.13
42289;BME280;30230;47.520;19.016;2023-08-07T07:55:01;98480.94;;;18.47;63.91
42289;BME280;30230;47.520;19.016;2023-08-07T07:57:01;98468.91;;;18.18;64.89
42289;BME280;30230;47.520;19.016;2023-08-07T07:59:02;98470.28;;;18.41;63.49
42289;BME280;30230;47.520;19.016;2023-08-07T08:01:02;98461.78;;;18.63;63.95
42289;BME280;30230;47.520;19.016;2023-08-07T08:03:03;98472.19;;;18.56;63.83
42289;BME280;30230;47.520;19.016;2023-08-07T08:05:03;98484.19;;;18.29;64.53
42289;BME280;30230;47.520;19.016;2023-08-07T08:07:04;98486.69;;;18.20;64.75
42289;BME280;30230;47.520;19.016;2023-08-07T08:09:06;98486.38;;;18.17;64.55
42289;BME280;30230;47.520;19.016;2023-08-07T08:11:09;98501.13;;;18.06;65.86
42289;BME280;30230;47.520;19.016;2023-08-07T08:13:10;98498.97;;;18.18;65.05
42289;BME280;30230;47.520;19.016;2023-08-07T08:15:11;98491.31;;;18.10;64.99
42289;BME280;30230;47.520;19.016;2023-08-07T08:17:11;98505.00;;;18.20;64.91
42289;BME280;30230;47.520;19.016;2023-08-07T08:19:12;98500.06;;;18.27;63.75
42289;BME280;30230;47.520;19.016;2023-08-07T08:21:12;98507.16;;;18.23;65.41
42289;BME280;30230;47.520;19.016;2023-08-07T08:23:12;98509.63;;;18.19;66.02
42289;BME280;30230;47.520;19.016;2023-08-07T08:25:13;98512.38;;;18.14;64.81
42289;BME280;30230;47.520;19.016;2023-08-07T08:27:13;98511.81;;;18.12;65.11
42289;BME280;30230;47.520;19.016;2023-08-07T08:29:14;98514.53;;;18.17;65.22
42289;BME280;30230;47.520;19.016;2023-08-07T08:31:15;98510.19;;;18.16;64.40
42289;BME280;30230;47.520;19.016;2023-08-07T08:33:15;98524.66;;;18.22;64.33
42289;BME280;30230;47.520;19.016;2023-08-07T08:35:15;98519.47;;;18.26;62.20
42289;BME280;30230;47.520;19.016;2023-08-07T08:37:16;98531.25;;;18.31;63.63
42289;BME280;30230;47.520;19.016;2023-08-07T08:39:16;98522.47;;;18.29;64.17
42289;BME280;30230;47.520;19.016;2023-08-07T08:41:17;98522.22;;;18.36;63.38
42289;BME280;30230;47.520;19.016;2023-08-07T08:43:18;98527.41;;;18.22;63.36
42289;BME280;30230;47.520;19.016;2023-08-07T08:45:20;98527.91;;;18.14;64.34
42289;BME280;30230;47.520;19.016;2023-08-07T08:47:22;98547.63;;;18.16;65.26
42289;BME280;30230;47.520;19.016;2023-08-07T08:49:28;98523.03;;;18.16;64.16
42289;BME280;30230;47.520;19.016;2023-08-07T08:51:31;98546.22;;;18.03;63.97
42289;BME280;30230;47.520;19.016;2023-08-07T08:53:32;98545.34;;;17.87;62.78
42289;BME280;30230;47.520;19.016;2023-08-07T08:55:33;98548.06;;;17.82;63.55
42289;BME280;30230;47.520;19.016;2023-08-07T08:57:34;98542.78;;;17.60;64.85
42289;BME280;30230;47.520;19.016;2023-08-07T08:59:36;98534.50;;;17.45;65.48
42289;BME280;30230;47.520;19.016;2023-08-07T09:01:37;98551.47;;;17.47;65.17
42289;BME280;30230;47.520;19.016;2023-08-07T09:03:38;98536.66;;;17.33;65.04
42289;BME280;30230;47.520;19.016;2023-08-07T09:05:39;98551.69;;;17.40;66.45
42289;BME280;30230;47.520;19.016;2023-08-07T09:07:40;98553.94;;;17.49;66.85
42289;BME280;30230;47.520;19.016;2023-08-07T09:09:41;98550.41;;;17.53;64.74
42289;BME280;30230;47.520;19.016;2023-08-07T09:11:43;98557.28;;;17.71;67.34
42289;BME280;30230;47.520;19.016;2023-08-07T09:13:45;98558.72;;;17.79;66.95
42289;BME280;30230;47.520;19.016;2023-08-07T09:15:48;98557.75;;;18.20;63.55
42289;BME280;30230;47.520;19.016;2023-08-07T09:17:51;98559.94;;;18.34;61.84
42289;BME280;30230;47.520;19.016;2023-08-07T09:19:53;98558.31;;;18.48;64.38
42289;BME280;30230;47.520;19.016;2023-08-07T09:21:53;98566.84;;;18.92;63.32
42289;BME280;30230;47.520;19.016;2023-08-07T09:23:54;98572.00;;;18.58;61.68
42289;BME280;30230;47.520;19.016;2023-08-07T09:26:05;98573.06;;;18.32;63.91
42289;BME280;30230;47.520;19.016;2023-08-07T09:28:06;98570.03;;;18.28;64.41
42289;BME280;30230;47.520;19.016;2023-08-07T09:30:07;98568.97;;;18.34;64.20
42289;BME280;30230;47.520;19.016;2023-08-07T09:32:13;98547.38;;;18.48;63.96
42289;BME280;30230;47.520;19.016;2023-08-07T09:34:13;98566.03;;;18.77;64.40
42289;BME280;30230;47.520;19.016;2023-08-07T09:36:16;98560.25;;;19.14;60.16
42289;BME280;30230;47.520;19.016;2023-08-07T09:38:18;98559.88;;;19.51;58.48
42289;BME280;30230;47.520;19.016;2023-08-07T09:40:18;98574.88;;;19.59;57.87
42289;BME280;30230;47.520;19.016;2023-08-07T09:42:19;98579.28;;;19.70;57.49
42289;BME280;30230;47.520;19.016;2023-08-07T09:44:21;98582.44;;;19.97;56.36
42289;BME280;30230;47.520;19.016;2023-08-07T09:46:21;98578.34;;;19.90;57.38
42289;BME280;30230;47.520;19.016;2023-08-07T09:48:24;98588.00;;;19.77;57.29
42289;BME280;30230;47.520;19.016;2023-08-07T09:50:25;98571.88;;;19.70;56.79
42289;BME280;30230;47.520;19.016;2023-08-07T09:52:27;98572.00;;;19.99;57.85
42289;BME280;30230;47.520;19.016;2023-08-07T09:54:30;98584.50;;;19.66;57.87
42289;BME280;30230;47.520;19.016;2023-08-07T09:56:31;98589.97;;;19.66;59.43
42289;BME280;30230;47.520;19.016;2023-08-07T09:58:31;98585.81;;;19.74;58.48
42289;BME280;30230;47.520;19.016;2023-08-07T10:00:34;98583.75;;;20.10;60.33
42289;BME280;30230;47.520;19.016;2023-08-07T10:02:35;98580.03;;;20.35;58.26
42289;BME280;30230;47.520;19.016;2023-08-07T10:04:36;98585.94;;;20.08;58.49
42289;BME280;30230;47.520;19.016;2023-08-07T10:06:36;98586.69;;;20.24;58.26
42289;BME280;30230;47.520;19.016;2023-08-07T10:08:37;98589.00;;;20.07;60.30
42289;BME280;30230;47.520;19.016;2023-08-07T10:10:38;98592.38;;;19.83;59.42
42289;BME280;30230;47.520;19.016;2023-08-07T10:12:39;98596.84;;;19.43;58.38
42289;BME280;30230;47.520;19.016;2023-08-07T10:14:42;98588.09;;;19.41;58.48
42289;BME280;30230;47.520;19.016;2023-08-07T10:16:43;98600.16;;;19.35;59.56
42289;BME280;30230;47.520;19.016;2023-08-07T10:18:43;98583.13;;;19.64;59.75
42289;BME280;30230;47.520;19.016;2023-08-07T10:20:44;98586.78;;;20.09;57.68
42289;BME280;30230;47.520;19.016;2023-08-07T10:22:44;98582.38;;;20.13;58.07
42289;BME280;30230;47.520;19.016;2023-08-07T10:24:48;98602.25;;;19.74;60.13
42289;BME280;30230;47.520;19.016;2023-08-07T10:26:50;98584.28;;;19.27;59.56
42289;BME280;30230;47.520;19.016;2023-08-07T10:28:52;98606.44;;;19.46;58.83
42289;BME280;30230;47.520;19.016;2023-08-07T10:30:54;98595.78;;;19.39;57.77
42289;BME280;30230;47.520;19.016;2023-08-07T10:32:57;98605.66;;;19.25;59.70
42289;BME280;30230;47.520;19.016;2023-08-07T10:34:58;98594.06;;;19.69;58.97
42289;BME280;30230;47.520;19.016;2023-08-07T10:37:01;98598.69;;;19.78;58.35